METAR Data
IDs: Format: Raw Decoded Include TAF

Data at: 1705 UTC 19 Sep 2018

KPDK 191653Z 23004KT 10SM CLR 31/17 A3005 RMK AO2 SLP155 T03110172
KPDK 191553Z 32004KT 10SM CLR 31/18 A3006 RMK AO2 SLP160 T03060178
KPDK 191453Z 12003KT 10SM CLR 29/18 A3007 RMK AO2 SLP162 T02940183 51014
KPDK 191353Z 00000KT 10SM CLR 28/20 A3005 RMK AO2 SLP158 T02780200
KPDK 191253Z VRB03KT 10SM CLR 24/20 A3004 RMK AO2 SLP154 T02440200
KPDK 191153Z 00000KT 10SM CLR 21/19 A3002 RMK AO2 SLP149 T02110189 10217 20200 53017
KPDK 191053Z 00000KT 10SM FEW110 22/19 A3000 RMK AO2 SLP141 T02170189
KPDK 190953Z AUTO 00000KT 10SM CLR 21/19 A2999 RMK AO2 SLP136 T02110194
KPDK 190853Z AUTO 00000KT 10SM CLR 21/19 A2997 RMK AO2 SLP130 T02060189 58001
KPDK 190753Z AUTO 00000KT 10SM CLR 21/19 A2998 RMK AO2 SLP130 T02110194
KPDK 190653Z AUTO 02004KT 10SM CLR 22/20 A2998 RMK AO2 SLP130 T02170200
KPDK 190553Z AUTO 00000KT 10SM CLR 21/19 A2997 RMK AO2 SLP132 T02110194 10283 20211 50002
KPDK 190453Z AUTO 00000KT 10SM CLR 22/20 A2998 RMK AO2 SLP133 T02170200 403330194
KPDK 190353Z AUTO 00000KT 10SM CLR 23/20 A2997 RMK AO2 SLP130 T02280200
KPDK 190253Z AUTO 00000KT 10SM CLR 23/20 A2997 RMK AO2 SLP130 T02330200 51008
KPDK 190153Z 35003KT 10SM CLR 24/19 A2997 RMK AO2 SLP129 T02440194
KPDK 190053Z 36004KT 10SM CLR 26/19 A2996 RMK AO2 SLP126 T02610194
KPDK 182353Z 36006KT 10SM CLR 28/19 A2994 RMK AO2 SLP123 T02830194 10333 20283 53006
KPDK 182253Z 33009KT 10SM CLR 31/18 A2994 RMK AO2 SLP118 T03110178
KPDK 182153Z 31008KT 10SM CLR 32/18 A2992 RMK AO2 SLP113 T03220178
KPDK 182053Z 28008KT 10SM FEW055 33/18 A2993 RMK AO2 SLP113 T03280183 56016
KPDK 181953Z 27007KT 10SM SCT055 33/18 A2993 RMK AO2 SLP116 T03330183
KPDK 181853Z 29007KT 10SM SCT055 32/18 A2995 RMK AO2 SLP122 T03220183
KPDK 181753Z 00000KT 10SM CLR 31/18 A2997 RMK AO2 SLP131 T03110183 10328 20211 58012
KPDK 181653Z 33006KT 10SM CLR 31/19 A3000 RMK AO2 SLP138 T03110194
KPDK 181553Z 35009KT 10SM CLR 30/19 A3001 RMK AO2 SLP142 T03000189
KPDK 181453Z 32005KT 10SM CLR 28/19 A3001 RMK AO2 SLP144 T02830194 53002
KPDK 181353Z 35006KT 10SM CLR 27/20 A3001 RMK AO2 SLP144 T02720200
KPDK 181253Z 32005KT 10SM CLR 24/21 A3001 RMK AO2 SLP143 T02390206
KPDK 181153Z 28004KT 10SM CLR 21/20 A3001 RMK AO2 SLP144 T02110200 10222 20194 51008
KPDK 181053Z 00000KT 10SM CLR 20/19 A3000 RMK AO2 SLP142 T02000189
KPDK 180953Z AUTO 25003KT 10SM CLR 21/19 A2999 RMK AO2 SLP139 T02060194
KPDK 180853Z AUTO 00000KT 10SM CLR 21/19 A2998 RMK AO2 SLP135 T02110194 58001
KPDK 180753Z AUTO 27003KT 10SM CLR 21/20 A2998 RMK AO2 SLP134 T02110200
KPDK 180653Z AUTO 32003KT 10SM CLR 22/20 A2999 RMK AO2 SLP135 T02220200
KPDK 180553Z AUTO 22004KT 10SM CLR 22/20 A2999 RMK AO2 SLP136 T02170200 10283 20217 50001